createdAt,value
2023-04-15T00:14:34.623Z,98878.75
2023-04-15T00:29:36.580Z,98874.91
2023-04-15T00:44:38.253Z,98868.97
2023-04-15T00:59:39.974Z,98866.03
2023-04-15T01:14:41.702Z,98853.56
2023-04-15T01:29:43.418Z,98835.78
2023-04-15T01:44:45.121Z,98839.41
2023-04-15T01:59:46.814Z,98833.38
2023-04-15T02:14:48.485Z,98825.69
2023-04-15T02:29:50.155Z,98820.69
2023-04-15T02:44:52.051Z,98827.69
2023-04-15T02:59:53.744Z,98834.22
2023-04-15T03:14:55.365Z,98825.16
2023-04-15T03:29:56.992Z,98820.38
2023-04-15T03:44:58.648Z,98814.81
2023-04-15T04:00:00.310Z,98816.22
2023-04-15T04:15:01.973Z,98816.22
2023-04-15T04:30:04.237Z,98814.94
2023-04-15T04:45:06.371Z,98824.41
2023-04-15T05:00:08.628Z,98816.38
2023-04-15T05:15:10.799Z,98809.94
2023-04-15T05:30:13.722Z,98802.88
2023-04-15T05:45:15.696Z,98799.16
2023-04-15T06:00:17.578Z,98802.66
2023-04-15T06:15:19.448Z,98807.75
2023-04-15T06:30:22.940Z,98827.13
2023-04-15T06:45:26.108Z,98846.66
2023-04-15T07:00:27.847Z,98849.13
2023-04-15T07:15:29.514Z,98862.53
2023-04-15T07:30:31.213Z,98853.09
2023-04-15T07:45:32.920Z,98866.13
2023-04-15T08:00:34.627Z,98884.75
2023-04-15T08:15:36.348Z,98870.97
2023-04-15T08:30:38.038Z,98898.44
2023-04-15T08:45:39.984Z,98892.34
2023-04-15T09:00:42.169Z,98887.44
2023-04-15T09:15:43.921Z,98906.66
2023-04-15T09:30:45.565Z,98920.47
2023-04-15T09:45:52.664Z,98922.56
2023-04-15T10:00:56.232Z,98929.31
2023-04-15T10:16:00.713Z,98932.72
2023-04-15T10:31:02.819Z,98951.63
2023-04-15T10:46:06.609Z,98947.72
2023-04-15T11:01:08.318Z,98964.16
2023-04-15T11:16:10.071Z,98977.31
2023-04-15T11:31:14.248Z,98984.09
2023-04-15T11:46:16.139Z,98998.69
2023-04-15T12:01:18.285Z,99009.75
2023-04-15T12:16:20.266Z,99019.22
2023-04-15T12:31:22.084Z,99038.81
2023-04-15T12:46:24.184Z,99062.69
2023-04-15T13:01:25.959Z,99064.34
2023-04-15T13:16:28.263Z,99081.81
2023-04-15T13:31:30.040Z,99103.03
2023-04-15T13:46:31.922Z,99104.69
2023-04-15T14:01:34.680Z,99123.22
2023-04-15T14:16:36.477Z,99132.06
2023-04-15T14:31:38.649Z,99143.41
2023-04-15T14:46:42.943Z,99154.91
2023-04-15T15:01:44.760Z,99164.84
2023-04-15T15:16:46.496Z,99179.28
2023-04-15T15:31:48.712Z,99192.22
2023-04-15T15:46:50.864Z,99214.72
2023-04-15T16:01:53.017Z,99212.28
2023-04-15T16:16:54.981Z,99236.16
2023-04-15T16:31:56.937Z,99255.75
2023-04-15T16:46:58.621Z,99266.47
2023-04-15T17:02:03.290Z,99283.38
2023-04-15T17:17:05.134Z,99303.16
2023-04-15T17:32:06.814Z,99320.91
2023-04-15T17:47:08.583Z,99332.66
2023-04-15T18:02:10.454Z,99356.56
2023-04-15T18:17:12.305Z,99372.66
2023-04-15T18:32:14.047Z,99401.91
2023-04-15T18:47:16.253Z,99421.28
2023-04-15T19:02:18.029Z,99438.19
2023-04-15T19:17:19.790Z,99468.72
2023-04-15T19:32:21.616Z,99479.06
2023-04-15T19:47:23.579Z,99480.50
2023-04-15T20:02:25.558Z,99485.69
2023-04-15T20:17:27.655Z,99503.47
2023-04-15T20:32:29.547Z,99513.16
2023-04-15T20:47:31.705Z,99518.13
2023-04-15T21:02:33.559Z,99516.91
2023-04-15T21:17:35.388Z,99536.91
2023-04-15T21:32:37.235Z,99550.06
2023-04-15T21:48:06.169Z,99569.88
2023-04-15T22:03:00.839Z,99582.03
2023-04-15T22:18:02.626Z,99589.69
2023-04-15T22:33:04.556Z,99604.53
2023-04-15T22:48:06.321Z,99619.56
2023-04-15T23:03:08.375Z,99623.47
2023-04-15T23:18:10.244Z,99644.69
2023-04-15T23:33:12.027Z,99652.09
2023-04-15T23:48:13.739Z,99652.75
